Time;durP1;ratioP1;P1;durP2;ratioP2;P2;SDS_P1;SDS_P2;PMS_P1;PMS_P2;Temp;Humidity;BMP_temperature;BMP_pressure;BME280_temperature;BME280_humidity;BME280_pressure;Samples;Min_cycle;Max_cycle;Signal;HPM_P1;HPM_P2
2023/04/08 00:00:10;;;;;;;5.82;2.58;;;6.50;99.90;;;;;;5098204;27;20039;-81
2023/04/08 00:02:35;;;;;;;3.65;2.00;;;6.40;99.90;;;;;;5101941;27;20776;-81
2023/04/08 00:05:01;;;;;;;5.55;2.42;;;6.40;99.90;;;;;;5117426;27;20103;-81
2023/04/08 00:07:27;;;;;;;4.05;1.92;;;6.40;99.90;;;;;;5091030;27;20031;-81
2023/04/08 00:09:52;;;;;;;4.55;2.10;;;6.30;99.90;;;;;;5094841;27;20100;-81
2023/04/08 00:12:18;;;;;;;4.80;1.85;;;6.20;99.90;;;;;;5112968;27;20485;-81
2023/04/08 00:14:44;;;;;;;5.35;2.40;;;6.20;99.90;;;;;;5111973;27;20409;-81
2023/04/08 00:17:10;;;;;;;3.53;1.60;;;6.20;99.90;;;;;;5108574;27;20031;-81
2023/04/08 00:19:35;;;;;;;8.30;1.95;;;6.10;99.90;;;;;;5091240;27;20389;-81
2023/04/08 00:22:01;;;;;;;3.78;2.10;;;6.10;99.90;;;;;;5091373;27;20050;-81
2023/04/08 00:24:27;;;;;;;4.00;1.85;;;6.00;99.90;;;;;;5106249;27;20513;-81
2023/04/08 00:26:52;;;;;;;6.35;2.65;;;6.00;99.90;;;;;;5098286;27;20047;-81
2023/04/08 00:29:18;;;;;;;4.38;1.90;;;6.00;99.90;;;;;;5091845;27;20070;-81
2023/04/08 00:31:43;;;;;;;2.95;1.48;;;5.90;99.90;;;;;;5124317;27;20046;-81
2023/04/08 00:34:09;;;;;;;6.72;2.40;;;5.90;99.90;;;;;;5113501;27;20458;-81
2023/04/08 00:36:35;;;;;;;3.97;2.10;;;5.80;99.90;;;;;;5098403;27;20088;-81
2023/04/08 00:39:01;;;;;;;3.90;2.03;;;5.80;99.90;;;;;;5097129;27;20039;-81
2023/04/08 00:41:26;;;;;;;7.22;2.70;;;5.80;99.90;;;;;;5098339;27;20051;-81
2023/04/08 00:43:53;;;;;;;4.53;1.90;;;5.80;99.90;;;;;;5112883;27;20117;-81
2023/04/08 00:46:19;;;;;;;5.38;2.05;;;5.70;99.90;;;;;;5112861;27;20091;-81
2023/04/08 00:48:45;;;;;;;4.72;2.22;;;5.70;99.90;;;;;;5087494;27;20476;-81
2023/04/08 00:51:11;;;;;;;5.13;2.25;;;5.70;99.90;;;;;;5117724;27;20039;-81
2023/04/08 00:53:37;;;;;;;4.45;2.50;;;5.70;99.90;;;;;;5111280;27;20035;-81
2023/04/08 00:56:03;;;;;;;4.40;1.98;;;5.70;99.90;;;;;;5116564;27;20808;-81
2023/04/08 00:58:29;;;;;;;3.38;1.73;;;5.70;99.90;;;;;;5103759;27;20030;-81
2023/04/08 01:01:03;;;;;;;5.63;2.55;;;5.60;99.90;;;;;;5092512;27;20043;-81
2023/04/08 01:03:47;;;;;;;3.50;1.80;;;5.70;99.90;;;;;;5091872;27;20043;-81
2023/04/08 01:06:25;;;;;;;5.15;2.55;;;5.60;99.90;;;;;;5111162;27;20042;-81
2023/04/08 01:08:52;;;;;;;5.22;2.30;;;5.60;99.90;;;;;;5089824;27;20043;-81
2023/04/08 01:11:18;;;;;;;4.72;2.20;;;5.60;99.90;;;;;;5098121;27;20070;-81
2023/04/08 01:13:47;;;;;;;5.70;2.53;;;5.60;99.90;;;;;;5091887;27;20569;-81
2023/04/08 01:16:16;;;;;;;5.00;2.63;;;5.60;99.90;;;;;;5116479;27;20035;-81
2023/04/08 01:18:43;;;;;;;4.32;2.42;;;5.60;99.90;;;;;;5090084;27;20036;-81
2023/04/08 01:21:11;;;;;;;5.90;2.28;;;5.60;99.90;;;;;;5108201;27;20054;-81
2023/04/08 01:23:52;;;;;;;4.95;2.80;;;5.50;99.90;;;;;;5110771;27;20039;-81
2023/04/08 01:26:23;;;;;;;5.43;2.13;;;5.50;99.90;;;;;;5087234;27;20097;-81
2023/04/08 01:28:53;;;;;;;5.93;2.90;;;5.50;99.90;;;;;;5107773;27;20370;-81
2023/04/08 01:31:20;;;;;;;7.05;2.05;;;5.40;99.90;;;;;;5112057;27;20482;-81
2023/04/08 01:33:48;;;;;;;6.47;2.30;;;5.40;99.90;;;;;;5098361;27;20116;-81
2023/04/08 01:36:15;;;;;;;5.10;2.25;;;5.40;99.90;;;;;;5121542;27;20499;-81
2023/04/08 01:38:41;;;;;;;5.72;2.55;;;5.40;99.90;;;;;;5091427;27;20311;-81
2023/04/08 01:41:09;;;;;;;5.35;2.30;;;5.40;99.90;;;;;;5101632;27;20078;-81
2023/04/08 01:43:38;;;;;;;4.18;2.22;;;5.30;99.90;;;;;;5095120;27;20118;-81
2023/04/08 01:46:05;;;;;;;5.53;2.55;;;5.30;99.90;;;;;;5092949;27;20046;-81
2023/04/08 01:48:32;;;;;;;4.18;2.35;;;5.30;99.90;;;;;;5105516;27;20056;-81
2023/04/08 01:50:59;;;;;;;5.93;2.55;;;5.20;99.90;;;;;;5106952;27;20042;-81
2023/04/08 01:53:25;;;;;;;6.38;3.17;;;5.20;99.90;;;;;;5121515;27;20100;-81
2023/04/08 01:55:57;;;;;;;5.15;2.90;;;5.10;99.90;;;;;;5116775;27;20044;-81
2023/04/08 01:58:25;;;;;;;4.82;2.92;;;5.20;99.90;;;;;;5097135;27;20302;-81
2023/04/08 02:00:53;;;;;;;5.13;2.45;;;5.10;99.90;;;;;;5111233;27;20076;-80
2023/04/08 02:03:21;;;;;;;6.00;2.80;;;5.00;99.90;;;;;;5090712;27;21165;-81
2023/04/08 02:05:47;;;;;;;5.78;2.70;;;5.00;99.90;;;;;;5094137;27;20499;-81
2023/04/08 02:08:12;;;;;;;6.35;3.30;;;5.00;99.90;;;;;;5089080;27;20058;-81
2023/04/08 02:10:38;;;;;;;7.82;4.07;;;5.00;99.90;;;;;;5110031;27;20070;-81
2023/04/08 02:13:04;;;;;;;6.38;3.17;;;4.90;99.90;;;;;;5082401;27;20089;-81
2023/04/08 02:15:35;;;;;;;8.50;3.83;;;4.90;99.90;;;;;;5108846;27;20039;-81
2023/04/08 02:18:12;;;;;;;5.53;2.65;;;4.90;99.90;;;;;;5089380;27;20079;-81
2023/04/08 02:20:42;;;;;;;6.93;3.25;;;4.90;99.90;;;;;;5115135;27;20035;-81
2023/04/08 02:23:23;;;;;;;5.78;2.85;;;4.90;99.90;;;;;;5107358;27;20120;-81
2023/04/08 02:25:49;;;;;;;6.25;2.70;;;4.90;99.90;;;;;;5105926;27;20089;-81
2023/04/08 02:28:17;;;;;;;8.40;3.15;;;4.90;99.90;;;;;;5090967;28;20080;-81
2023/04/08 02:30:48;;;;;;;6.03;3.08;;;4.90;99.90;;;;;;5095753;27;20064;-81
2023/04/08 02:33:17;;;;;;;8.13;3.58;;;4.90;99.90;;;;;;5110145;27;20035;-81
2023/04/08 02:35:44;;;;;;;6.65;3.60;;;4.90;99.90;;;;;;5090801;27;20473;-81
2023/04/08 02:38:10;;;;;;;6.63;3.25;;;4.90;99.90;;;;;;5110023;27;20022;-81
2023/04/08 02:40:36;;;;;;;5.22;3.03;;;4.80;99.90;;;;;;5090655;27;20027;-81
2023/04/08 02:43:02;;;;;;;5.88;3.13;;;4.80;99.90;;;;;;5095126;28;20039;-81
2023/04/08 02:45:31;;;;;;;9.25;2.80;;;4.90;99.90;;;;;;5099082;27;20499;-81
2023/04/08 02:48:00;;;;;;;7.47;3.50;;;4.90;99.90;;;;;;5110340;27;20035;-81
2023/04/08 02:50:26;;;;;;;7.93;3.15;;;4.80;99.90;;;;;;5095300;27;20042;-81
2023/04/08 02:52:52;;;;;;;5.82;3.22;;;4.80;99.90;;;;;;5096249;27;20039;-81
2023/04/08 02:55:17;;;;;;;8.50;3.40;;;4.80;99.90;;;;;;5110771;27;20126;-81
2023/04/08 02:57:43;;;;;;;7.43;3.05;;;4.80;99.90;;;;;;5093822;27;20058;-81
2023/04/08 03:00:09;;;;;;;8.02;3.05;;;4.80;99.90;;;;;;5086120;27;20030;-81
2023/04/08 03:02:35;;;;;;;6.50;3.28;;;4.80;99.90;;;;;;5114891;27;20126;-81
2023/04/08 03:05:02;;;;;;;9.23;3.22;;;4.70;99.90;;;;;;5083546;27;20575;-81
2023/04/08 03:07:28;;;;;;;7.90;3.40;;;4.70;99.90;;;;;;5105509;28;20039;-81
2023/04/08 03:09:54;;;;;;;7.90;3.53;;;4.70;99.90;;;;;;5117534;27;20122;-81
2023/04/08 03:12:20;;;;;;;8.05;3.65;;;4.60;99.90;;;;;;5095178;28;20047;-81
2023/04/08 03:14:46;;;;;;;6.50;2.92;;;4.60;99.90;;;;;;5109802;28;20040;-81
2023/04/08 03:17:12;;;;;;;7.30;3.45;;;4.60;99.90;;;;;;5096537;27;20030;-81
2023/04/08 03:19:37;;;;;;;8.02;3.15;;;4.50;99.90;;;;;;5093465;27;20039;-81
2023/04/08 03:22:03;;;;;;;8.23;3.70;;;4.60;99.90;;;;;;5102115;27;20039;-81
2023/04/08 03:24:28;;;;;;;7.07;3.47;;;4.60;99.90;;;;;;5111107;27;20053;-81
2023/04/08 03:26:54;;;;;;;9.18;3.75;;;4.60;99.90;;;;;;5096331;28;20043;-81
2023/04/08 03:29:20;;;;;;;7.00;4.00;;;4.60;99.90;;;;;;5097672;28;20139;-81
2023/04/08 03:31:45;;;;;;;7.53;3.17;;;4.60;99.90;;;;;;5111882;28;20076;-81
2023/04/08 03:34:11;;;;;;;7.60;3.42;;;4.60;99.90;;;;;;5082963;27;20042;-81
2023/04/08 03:36:36;;;;;;;9.63;3.53;;;4.60;99.90;;;;;;5095303;28;20103;-81
2023/04/08 03:39:02;;;;;;;8.20;3.85;;;4.60;99.90;;;;;;5105447;27;20112;-81
2023/04/08 03:41:28;;;;;;;12.13;3.97;;;4.60;99.90;;;;;;5090919;27;20031;-81
2023/04/08 03:43:54;;;;;;;9.48;3.70;;;4.60;99.90;;;;;;5096101;28;20450;-81
2023/04/08 03:46:22;;;;;;;8.65;3.80;;;4.60;99.90;;;;;;5106565;27;20115;-81
2023/04/08 03:48:47;;;;;;;8.38;3.92;;;4.60;99.90;;;;;;5089367;28;20544;-81
2023/04/08 03:51:13;;;;;;;7.32;3.70;;;4.60;99.90;;;;;;5089965;27;20040;-81
2023/04/08 03:53:39;;;;;;;7.35;3.92;;;4.60;99.90;;;;;;5108410;28;20078;-81
2023/04/08 03:56:05;;;;;;;7.82;4.03;;;4.60;99.90;;;;;;5098668;28;20622;-81
2023/04/08 03:58:31;;;;;;;9.48;4.13;;;4.60;99.90;;;;;;5101055;28;20055;-81
2023/04/08 04:00:57;;;;;;;7.47;3.42;;;4.60;99.90;;;;;;5109667;27;20039;-81
2023/04/08 04:03:22;;;;;;;9.50;3.90;;;4.60;99.90;;;;;;5094278;28;20126;-81
2023/04/08 04:05:48;;;;;;;9.68;4.00;;;4.70;99.90;;;;;;5103417;28;20077;-81
2023/04/08 04:08:14;;;;;;;8.98;4.05;;;4.60;99.90;;;;;;5098554;27;20102;-81
2023/04/08 04:10:39;;;;;;;7.55;3.03;;;4.60;99.90;;;;;;5081665;28;20512;-81
2023/04/08 04:13:05;;;;;;;8.73;3.85;;;4.60;99.90;;;;;;5085879;27;20055;-81
2023/04/08 04:15:31;;;;;;;8.15;3.83;;;4.60;99.90;;;;;;5098519;28;20480;-81
2023/04/08 04:17:56;;;;;;;9.48;4.00;;;4.60;99.90;;;;;;5087993;28;20035;-81
2023/04/08 04:20:22;;;;;;;9.70;3.88;;;4.60;99.90;;;;;;5093916;27;20027;-81
2023/04/08 04:22:48;;;;;;;8.57;3.33;;;4.50;99.90;;;;;;5085411;27;20036;-81
2023/04/08 04:25:14;;;;;;;7.65;4.22;;;4.60;99.90;;;;;;5104826;27;20549;-80
2023/04/08 04:27:39;;;;;;;7.70;3.70;;;4.60;99.90;;;;;;5091860;27;20065;-81
2023/04/08 04:30:06;;;;;;;10.32;3.80;;;4.60;99.90;;;;;;5096096;27;21284;-80
2023/04/08 04:32:31;;;;;;;8.65;3.85;;;4.60;99.90;;;;;;5109485;27;20396;-81
2023/04/08 04:34:57;;;;;;;8.80;3.97;;;4.60;99.90;;;;;;5114788;27;20035;-81
2023/04/08 04:37:23;;;;;;;9.65;3.83;;;4.60;99.90;;;;;;5114597;27;20058;-81
2023/04/08 04:39:48;;;;;;;7.80;3.47;;;4.60;99.90;;;;;;5103002;27;20060;-81
2023/04/08 04:42:14;;;;;;;9.43;3.72;;;4.50;99.90;;;;;;5087988;27;20808;-81
2023/04/08 04:44:40;;;;;;;7.45;3.75;;;4.60;99.90;;;;;;5090435;27;20062;-81
2023/04/08 04:47:05;;;;;;;11.68;4.43;;;4.60;99.90;;;;;;5114787;27;20540;-81
2023/04/08 04:49:31;;;;;;;7.78;3.55;;;4.60;99.90;;;;;;5097699;27;20035;-81
2023/04/08 04:51:56;;;;;;;7.82;3.97;;;4.60;99.90;;;;;;5104872;27;20033;-81
2023/04/08 04:54:22;;;;;;;9.95;3.90;;;4.60;99.90;;;;;;5096897;27;20031;-81
2023/04/08 04:56:48;;;;;;;9.38;4.20;;;4.60;99.90;;;;;;5103404;27;20035;-81
2023/04/08 04:59:13;;;;;;;7.75;3.00;;;4.50;99.90;;;;;;5103641;27;20065;-81
2023/04/08 05:01:39;;;;;;;7.43;3.95;;;4.50;99.90;;;;;;5096783;27;20074;-81
2023/04/08 05:04:06;;;;;;;7.13;3.88;;;4.50;99.90;;;;;;5090260;27;20043;-81
2023/04/08 05:06:32;;;;;;;17.73;4.15;;;4.50;99.90;;;;;;5095896;27;20792;-81
2023/04/08 05:08:57;;;;;;;10.23;4.35;;;4.40;99.90;;;;;;5095784;27;20082;-81
2023/04/08 05:11:23;;;;;;;12.43;4.90;;;4.50;99.90;;;;;;5086386;27;20042;-81
2023/04/08 05:13:49;;;;;;;9.20;3.90;;;4.40;99.90;;;;;;5094788;27;20080;-81
2023/04/08 05:16:15;;;;;;;7.82;3.53;;;4.40;99.90;;;;;;5109465;27;20508;-81
2023/04/08 05:18:41;;;;;;;11.32;4.28;;;4.40;99.90;;;;;;5110153;27;20562;-81
2023/04/08 05:21:07;;;;;;;9.55;3.92;;;4.50;99.90;;;;;;5102619;27;20031;-81
2023/04/08 05:23:34;;;;;;;8.88;4.43;;;4.50;99.90;;;;;;5104687;27;20135;-81
2023/04/08 05:25:59;;;;;;;15.20;4.47;;;4.50;99.90;;;;;;5117973;27;20065;-81
2023/04/08 05:28:26;;;;;;;10.02;3.67;;;4.60;99.90;;;;;;5110708;27;20489;-81
2023/04/08 05:30:52;;;;;;;9.77;4.40;;;4.70;99.90;;;;;;5108023;27;20455;-81
2023/04/08 05:33:19;;;;;;;11.95;3.85;;;4.70;99.90;;;;;;5108679;27;20403;-81
2023/04/08 05:35:45;;;;;;;10.80;4.22;;;4.70;99.90;;;;;;5095766;27;20114;-81
2023/04/08 05:38:11;;;;;;;10.82;5.35;;;4.80;99.90;;;;;;5099057;27;20465;-81
2023/04/08 05:40:36;;;;;;;12.23;4.40;;;4.80;99.90;;;;;;5089851;27;20039;-80
2023/04/08 05:43:02;;;;;;;10.07;4.28;;;4.80;99.90;;;;;;5102281;27;20042;-81
2023/04/08 05:45:28;;;;;;;13.57;4.45;;;4.90;99.90;;;;;;5096995;27;20039;-81
2023/04/08 05:47:54;;;;;;;11.00;3.97;;;4.90;99.90;;;;;;5109038;27;20118;-80
2023/04/08 05:50:20;;;;;;;11.25;4.55;;;4.90;99.90;;;;;;5105706;27;20039;-80
2023/04/08 05:52:45;;;;;;;9.98;4.18;;;4.90;99.90;;;;;;5094484;27;20239;-81
2023/04/08 05:55:13;;;;;;;8.25;3.65;;;4.90;99.90;;;;;;5102092;27;20030;-81
2023/04/08 05:57:39;;;;;;;12.73;4.45;;;5.00;99.90;;;;;;5084655;27;20167;-81
2023/04/08 06:00:07;;;;;;;10.80;4.60;;;5.00;99.90;;;;;;5114584;27;20038;-81
2023/04/08 06:02:32;;;;;;;11.20;4.82;;;5.10;99.90;;;;;;5091931;27;20063;-81
2023/04/08 06:04:58;;;;;;;10.05;4.43;;;5.10;99.90;;;;;;5094908;27;20031;-81
2023/04/08 06:07:24;;;;;;;10.82;4.13;;;5.10;99.90;;;;;;5090852;27;20455;-81
2023/04/08 06:09:49;;;;;;;11.82;4.65;;;5.20;99.90;;;;;;5093078;27;20023;-81
2023/04/08 06:12:15;;;;;;;10.57;4.28;;;5.10;99.90;;;;;;5091692;27;20467;-81
2023/04/08 06:14:40;;;;;;;10.45;4.07;;;5.20;99.90;;;;;;5086374;27;20479;-81
2023/04/08 06:17:06;;;;;;;10.20;4.38;;;5.20;99.90;;;;;;5114237;27;20066;-81
2023/04/08 06:19:32;;;;;;;12.20;4.35;;;5.20;99.90;;;;;;5094505;27;20078;-81
2023/04/08 06:21:58;;;;;;;14.52;4.80;;;5.20;99.90;;;;;;5089872;27;20058;-81
2023/04/08 06:24:28;;;;;;;9.57;4.32;;;5.20;99.90;;;;;;5103554;27;20477;-81
2023/04/08 06:26:54;;;;;;;11.70;4.53;;;5.30;99.90;;;;;;5093417;27;20066;-81
2023/04/08 06:29:23;;;;;;;13.27;4.63;;;5.30;99.90;;;;;;5105759;27;20518;-81
2023/04/08 06:31:49;;;;;;;10.88;4.20;;;5.40;99.90;;;;;;5098795;27;20493;-81
2023/04/08 06:34:15;;;;;;;11.15;4.57;;;5.50;99.90;;;;;;5103911;27;20549;-81
2023/04/08 06:36:41;;;;;;;13.13;5.15;;;5.50;99.90;;;;;;5085107;27;20072;-81
2023/04/08 06:39:06;;;;;;;11.20;4.65;;;5.60;99.90;;;;;;5107968;27;20031;-81
2023/04/08 06:41:32;;;;;;;12.13;4.28;;;5.70;99.90;;;;;;5080387;27;20024;-81
2023/04/08 06:43:58;;;;;;;12.27;4.63;;;5.70;99.90;;;;;;5096364;27;20053;-81
2023/04/08 06:46:24;;;;;;;12.75;4.75;;;5.80;99.90;;;;;;5107119;27;20038;-81
2023/04/08 06:48:50;;;;;;;12.68;5.20;;;5.90;99.90;;;;;;5084961;27;20057;-81
2023/04/08 06:51:15;;;;;;;8.55;3.88;;;5.90;99.90;;;;;;5122012;27;20404;-81
2023/04/08 06:53:41;;;;;;;13.32;4.75;;;5.90;99.90;;;;;;5083875;27;20156;-81
2023/04/08 06:56:07;;;;;;;11.35;4.80;;;5.90;99.90;;;;;;5110205;27;20042;-81
2023/04/08 06:58:32;;;;;;;9.35;4.05;;;6.00;99.90;;;;;;5086348;27;20969;-81
2023/04/08 07:00:59;;;;;;;12.23;4.25;;;6.00;99.90;;;;;;5109392;27;20212;-81
2023/04/08 07:03:25;;;;;;;11.68;4.75;;;6.00;99.90;;;;;;5090583;27;20046;-81
2023/04/08 07:05:51;;;;;;;12.70;4.97;;;6.00;99.90;;;;;;5093827;28;20477;-82
2023/04/08 07:08:17;;;;;;;13.05;4.65;;;6.00;99.90;;;;;;5108987;27;20118;-81
2023/04/08 07:10:43;;;;;;;9.23;4.03;;;6.00;99.90;;;;;;5098786;27;20160;-81
2023/04/08 07:13:09;;;;;;;9.88;4.30;;;6.10;99.90;;;;;;5120562;27;20039;-81
2023/04/08 07:15:35;;;;;;;11.38;5.38;;;6.10;99.90;;;;;;5091849;27;20042;-80
2023/04/08 07:18:01;;;;;;;12.30;4.55;;;6.10;99.90;;;;;;5097997;27;20035;-80
2023/04/08 07:20:27;;;;;;;11.38;4.63;;;6.10;99.90;;;;;;5114566;27;20087;-79
2023/04/08 07:22:53;;;;;;;12.68;4.70;;;6.10;99.90;;;;;;5089516;27;20039;-80
2023/04/08 07:25:18;;;;;;;10.90;4.85;;;6.10;99.90;;;;;;5094849;28;20050;-80
2023/04/08 07:27:44;;;;;;;10.95;4.45;;;6.20;99.90;;;;;;5090556;28;20054;-80
2023/04/08 07:30:10;;;;;;;9.60;4.40;;;6.30;99.90;;;;;;5093058;28;20043;-80
2023/04/08 07:32:36;;;;;;;10.43;4.45;;;6.30;99.90;;;;;;5103275;27;20062;-79
2023/04/08 07:35:02;;;;;;;10.35;4.90;;;6.40;99.90;;;;;;5131955;27;20126;-80
2023/04/08 07:37:28;;;;;;;10.43;5.07;;;6.40;99.90;;;;;;5131322;27;20164;-80
2023/04/08 07:39:54;;;;;;;12.10;4.88;;;6.40;99.90;;;;;;5132368;27;20046;-80
2023/04/08 07:42:20;;;;;;;10.15;4.18;;;6.40;99.90;;;;;;5132253;27;20062;-80
2023/04/08 07:44:46;;;;;;;10.45;5.00;;;6.50;99.90;;;;;;5126293;28;20123;-80
2023/04/08 07:47:12;;;;;;;13.73;4.53;;;6.50;99.90;;;;;;5107092;27;20059;-80
2023/04/08 07:49:37;;;;;;;13.25;5.18;;;6.50;99.90;;;;;;5114757;27;20484;-80
2023/04/08 07:52:04;;;;;;;12.13;4.55;;;6.50;99.90;;;;;;5113914;27;20085;-80
2023/04/08 07:54:33;;;;;;;11.23;4.53;;;6.60;99.90;;;;;;5114966;27;20449;-80
2023/04/08 07:57:00;;;;;;;12.88;5.07;;;6.60;99.90;;;;;;5088360;28;20038;-80
2023/04/08 07:59:26;;;;;;;10.45;4.18;;;6.60;99.90;;;;;;5093891;27;20396;-80
2023/04/08 08:01:51;;;;;;;10.23;4.50;;;6.70;99.90;;;;;;5095056;27;20027;-80
2023/04/08 08:04:17;;;;;;;14.50;4.60;;;6.70;99.90;;;;;;5095027;28;20043;-80
2023/04/08 08:06:43;;;;;;;12.30;5.15;;;6.80;99.90;;;;;;5079059;28;20359;-80
2023/04/08 08:09:09;;;;;;;13.57;5.05;;;6.90;99.90;;;;;;5096095;27;20039;-80
2023/04/08 08:11:34;;;;;;;9.90;4.68;;;6.90;99.90;;;;;;5100028;27;20069;-80
2023/04/08 08:14:00;;;;;;;11.10;4.22;;;6.90;99.90;;;;;;5109170;27;20051;-80
2023/04/08 08:16:30;;;;;;;10.60;4.25;;;6.90;99.90;;;;;;5091623;27;20059;-80
2023/04/08 08:18:57;;;;;;;9.80;3.65;;;6.80;99.90;;;;;;5110688;27;20088;-80
2023/04/08 08:21:23;;;;;;;11.77;4.28;;;6.80;99.90;;;;;;5102401;27;20473;-80
2023/04/08 08:23:48;;;;;;;9.93;4.43;;;6.70;99.90;;;;;;5106493;27;20035;-80
2023/04/08 08:26:14;;;;;;;8.23;4.22;;;6.80;99.90;;;;;;5087815;27;20519;-80
2023/04/08 08:28:40;;;;;;;9.90;4.70;;;6.80;99.90;;;;;;5087734;27;20508;-80
2023/04/08 08:31:06;;;;;;;12.55;4.32;;;6.80;99.90;;;;;;5110713;27;20045;-80
2023/04/08 08:33:32;;;;;;;11.73;4.75;;;6.90;99.90;;;;;;5100585;27;20500;-80
2023/04/08 08:35:58;;;;;;;11.65;4.90;;;7.00;99.90;;;;;;5092681;28;20114;-81
2023/04/08 08:38:25;;;;;;;9.77;3.88;;;7.00;99.90;;;;;;5077534;27;20122;-80
2023/04/08 08:40:55;;;;;;;9.02;3.75;;;7.10;99.90;;;;;;5121464;27;20606;-81
2023/04/08 08:43:21;;;;;;;11.10;5.05;;;7.20;99.90;;;;;;5097334;27;20039;-80
2023/04/08 08:45:47;;;;;;;10.30;4.22;;;7.10;99.90;;;;;;5114307;27;20039;-81
2023/04/08 08:48:13;;;;;;;9.68;4.03;;;7.20;99.90;;;;;;5105886;27;20065;-81
2023/04/08 08:50:38;;;;;;;11.93;4.50;;;7.20;99.90;;;;;;5096309;27;20039;-80
2023/04/08 08:53:04;;;;;;;10.57;4.15;;;7.20;99.90;;;;;;5098700;27;20054;-81
2023/04/08 08:55:32;;;;;;;15.27;5.07;;;7.20;99.90;;;;;;5082353;27;20413;-82
2023/04/08 08:58:00;;;;;;;13.55;4.22;;;7.20;99.90;;;;;;5100155;27;20041;-81
2023/04/08 09:00:35;;;;;;;13.07;4.75;;;7.20;99.90;;;;;;5098559;28;20074;-81
2023/04/08 09:03:30;;;;;;;11.80;4.63;;;7.20;99.90;;;;;;5128457;27;20049;-81
2023/04/08 09:05:58;;;;;;;12.52;5.22;;;7.30;99.90;;;;;;5076260;28;20386;-82
2023/04/08 09:08:26;;;;;;;10.45;4.38;;;7.40;99.90;;;;;;5114477;27;20035;-81
2023/04/08 09:10:52;;;;;;;11.43;4.70;;;7.40;99.90;;;;;;5118810;27;20039;-82
2023/04/08 09:13:18;;;;;;;13.40;5.00;;;7.50;99.90;;;;;;5111354;28;20045;-80
2023/04/08 09:16:17;;;;;;;10.23;4.65;;;7.60;99.90;;;;;;5123659;27;20731;-80
2023/04/08 09:18:45;;;;;;;11.90;4.50;;;7.60;99.90;;;;;;5097521;27;20044;-80
2023/04/08 09:21:12;;;;;;;12.63;4.40;;;7.60;99.90;;;;;;5105620;27;20084;-80
2023/04/08 09:23:40;;;;;;;10.52;4.10;;;7.70;99.90;;;;;;5120627;27;20043;-81
2023/04/08 09:26:11;;;;;;;10.93;4.60;;;7.70;99.90;;;;;;5106411;27;20035;-81
2023/04/08 09:28:37;;;;;;;11.32;4.65;;;7.80;99.90;;;;;;5095222;27;20504;-80
2023/04/08 09:31:18;;;;;;;11.13;4.57;;;7.90;99.90;;;;;;5096225;27;20140;-80
2023/04/08 09:33:44;;;;;;;10.73;4.72;;;7.90;99.90;;;;;;5098560;27;20069;-80
2023/04/08 09:36:10;;;;;;;10.75;4.38;;;7.90;99.90;;;;;;5086076;27;20043;-82
2023/04/08 09:38:36;;;;;;;9.93;4.43;;;8.00;99.90;;;;;;5094289;27;20049;-79
2023/04/08 09:41:06;;;;;;;10.90;4.38;;;8.10;99.90;;;;;;5083865;27;20031;-80
2023/04/08 09:43:39;;;;;;;10.32;4.68;;;8.10;99.90;;;;;;5078136;27;20035;-79
2023/04/08 09:46:07;;;;;;;11.48;4.40;;;8.10;99.90;;;;;;5086046;27;20133;-79
2023/04/08 09:48:44;;;;;;;10.85;4.53;;;8.10;99.90;;;;;;5081973;27;20084;-80
2023/04/08 09:51:15;;;;;;;8.00;3.85;;;8.10;99.90;;;;;;5098117;27;20035;-80
2023/04/08 09:53:52;;;;;;;7.47;3.67;;;8.10;99.90;;;;;;5083342;27;20047;-80
2023/04/08 09:56:18;;;;;;;9.18;4.60;;;8.10;99.90;;;;;;5083525;27;20031;-80
2023/04/08 09:58:54;;;;;;;11.02;4.50;;;8.20;99.90;;;;;;5098996;27;20080;-79
2023/04/08 10:01:27;;;;;;;8.45;3.90;;;8.10;99.90;;;;;;5087459;27;20118;-80
2023/04/08 10:03:56;;;;;;;9.15;4.20;;;8.20;99.90;;;;;;5096604;27;20091;-80
2023/04/08 10:06:27;;;;;;;10.60;4.35;;;8.20;99.90;;;;;;5085356;27;20047;-80
2023/04/08 10:08:57;;;;;;;10.13;4.75;;;8.20;99.90;;;;;;5103122;27;20141;-80
2023/04/08 10:11:23;;;;;;;7.72;3.75;;;8.20;99.90;;;;;;5088222;27;20055;-80
2023/04/08 10:13:48;;;;;;;6.13;3.10;;;8.20;99.90;;;;;;5072207;27;20043;-81
2023/04/08 10:16:21;;;;;;;9.68;3.85;;;8.10;99.90;;;;;;5084127;27;20076;-81
2023/04/08 10:18:51;;;;;;;9.23;3.85;;;8.10;99.90;;;;;;5103137;27;20516;-80
2023/04/08 10:21:37;;;;;;;7.63;3.95;;;8.10;99.90;;;;;;5099604;27;20035;-80
2023/04/08 10:24:09;;;;;;;7.50;3.17;;;8.10;99.90;;;;;;5093955;27;20128;-81
2023/04/08 10:26:43;;;;;;;9.27;4.13;;;8.10;99.90;;;;;;5093505;27;20035;-81
2023/04/08 10:29:17;;;;;;;11.43;3.80;;;8.10;99.90;;;;;;5090955;27;20537;-81
2023/04/08 10:31:50;;;;;;;8.10;3.92;;;8.10;99.90;;;;;;5090067;27;20526;-81
2023/04/08 10:34:16;;;;;;;7.97;3.45;;;8.10;99.90;;;;;;5104166;27;20476;-82
2023/04/08 10:36:43;;;;;;;8.65;3.25;;;8.10;99.90;;;;;;5102724;27;20534;-81
2023/04/08 10:39:08;;;;;;;7.55;3.53;;;8.10;99.90;;;;;;5091692;27;20035;-80
2023/04/08 10:41:34;;;;;;;8.48;3.78;;;8.20;99.90;;;;;;5091702;27;20035;-81
2023/04/08 10:44:03;;;;;;;8.15;3.47;;;8.30;99.90;;;;;;5096320;27;20046;-80
2023/04/08 10:46:36;;;;;;;6.60;3.20;;;8.30;99.90;;;;;;5111385;27;20085;-81
2023/04/08 10:49:02;;;;;;;7.65;3.38;;;8.40;99.90;;;;;;5107067;27;20412;-81
2023/04/08 10:51:31;;;;;;;7.78;3.22;;;8.40;99.90;;;;;;5107896;27;20043;-81
2023/04/08 10:54:06;;;;;;;5.80;2.90;;;8.40;99.90;;;;;;5103222;27;20392;-81
2023/04/08 10:56:32;;;;;;;7.07;3.20;;;8.40;99.90;;;;;;5099891;27;20039;-80
2023/04/08 10:58:58;;;;;;;7.57;3.38;;;8.50;99.90;;;;;;5087866;27;20929;-79
2023/04/08 11:01:24;;;;;;;10.02;3.70;;;8.50;99.90;;;;;;5078456;27;20138;-80
2023/04/08 11:03:50;;;;;;;9.02;3.33;;;8.50;99.90;;;;;;5098895;27;20041;-79
2023/04/08 11:06:17;;;;;;;7.32;3.63;;;8.50;99.90;;;;;;5094539;28;20036;-80
2023/04/08 11:08:46;;;;;;;6.72;2.80;;;8.50;99.90;;;;;;5086023;27;20442;-80
2023/04/08 11:11:12;;;;;;;6.53;2.97;;;8.50;99.90;;;;;;5092242;27;20043;-80
2023/04/08 11:13:43;;;;;;;7.30;3.50;;;8.60;99.90;;;;;;5088823;27;20197;-80
2023/04/08 11:16:09;;;;;;;7.90;3.15;;;8.60;99.90;;;;;;5101760;27;20078;-80
2023/04/08 11:18:37;;;;;;;8.48;4.25;;;8.70;99.90;;;;;;5086962;27;20069;-80
2023/04/08 11:21:07;;;;;;;7.38;3.25;;;8.70;99.90;;;;;;5096708;27;20046;-81
2023/04/08 11:23:33;;;;;;;6.90;3.20;;;8.70;99.90;;;;;;5101692;27;20053;-80
2023/04/08 11:25:59;;;;;;;8.02;3.28;;;8.70;99.90;;;;;;5101139;27;20039;-80
2023/04/08 11:28:25;;;;;;;7.72;3.42;;;8.80;99.90;;;;;;5080456;27;20393;-81
2023/04/08 11:30:52;;;;;;;6.30;2.88;;;8.80;99.90;;;;;;5105050;27;20034;-81
2023/04/08 11:33:18;;;;;;;7.85;2.50;;;8.80;99.90;;;;;;5095948;27;20088;-80
2023/04/08 11:35:43;;;;;;;9.30;3.42;;;8.80;99.90;;;;;;5092333;27;20044;-81
2023/04/08 11:38:10;;;;;;;9.82;3.97;;;8.80;99.90;;;;;;5088597;27;20039;-81
2023/04/08 11:40:36;;;;;;;10.07;3.38;;;8.90;99.90;;;;;;5110159;27;20063;-81
2023/04/08 11:43:14;;;;;;;8.95;3.55;;;8.90;99.90;;;;;;5095688;27;20114;-81
2023/04/08 11:45:41;;;;;;;8.38;3.50;;;8.90;99.90;;;;;;5096205;27;20027;-89
2023/04/08 11:48:11;;;;;;;11.68;3.92;;;8.90;99.90;;;;;;5103909;27;20065;-80
2023/04/08 11:50:37;;;;;;;10.23;3.55;;;8.90;99.90;;;;;;5107720;27;20070;-80
2023/04/08 11:53:02;;;;;;;8.38;3.88;;;8.90;99.90;;;;;;5090098;27;20043;-80
2023/04/08 11:55:31;;;;;;;10.88;4.57;;;8.90;99.90;;;;;;5107323;27;20570;-81
2023/04/08 11:58:06;;;;;;;10.43;4.43;;;9.00;99.90;;;;;;5108176;27;20504;-81
2023/04/08 12:00:31;;;;;;;8.60;4.28;;;9.00;99.90;;;;;;5092274;27;20387;-80
2023/04/08 12:02:57;;;;;;;11.40;4.95;;;9.00;99.90;;;;;;5109381;27;20039;-80
2023/04/08 12:05:23;;;;;;;11.50;4.25;;;9.00;99.90;;;;;;5101679;27;20086;-80
2023/04/08 12:07:48;;;;;;;11.40;4.78;;;9.00;99.90;;;;;;5094611;27;20032;-81
2023/04/08 12:10:14;;;;;;;12.45;5.30;;;9.00;99.90;;;;;;5095394;27;20043;-81
2023/04/08 12:12:40;;;;;;;12.77;5.55;;;9.00;99.90;;;;;;5100350;27;20178;-81
2023/04/08 12:15:07;;;;;;;16.70;5.88;;;9.00;99.90;;;;;;5095362;27;20055;-80
2023/04/08 12:17:33;;;;;;;12.95;4.82;;;8.90;99.90;;;;;;5106620;27;20042;-80
2023/04/08 12:19:59;;;;;;;8.88;3.92;;;9.00;99.90;;;;;;5090443;27;20747;-81
2023/04/08 12:22:25;;;;;;;14.02;5.22;;;9.00;99.90;;;;;;5100236;27;20023;-79
2023/04/08 12:24:51;;;;;;;11.35;5.25;;;9.00;99.90;;;;;;5092832;27;20131;-79
2023/04/08 12:27:17;;;;;;;13.30;4.78;;;9.00;99.90;;;;;;5083357;27;20030;-79
2023/04/08 12:29:43;;;;;;;10.63;4.38;;;8.90;99.90;;;;;;5102046;27;20058;-79
2023/04/08 12:32:08;;;;;;;17.20;5.57;;;8.90;99.90;;;;;;5102971;27;20422;-80
2023/04/08 12:34:34;;;;;;;14.35;5.05;;;8.90;99.90;;;;;;5106629;27;20053;-84
2023/04/08 12:37:01;;;;;;;16.23;5.68;;;8.90;99.90;;;;;;5102146;27;20038;-82
2023/04/08 12:39:27;;;;;;;14.50;5.10;;;8.90;99.90;;;;;;5102153;27;20035;-81
2023/04/08 12:41:53;;;;;;;17.13;5.75;;;8.90;99.90;;;;;;5097949;27;20030;-80
2023/04/08 12:44:18;;;;;;;14.50;5.78;;;8.90;99.90;;;;;;5091874;27;20039;-80
2023/04/08 12:46:44;;;;;;;15.02;5.60;;;8.90;99.90;;;;;;5092775;27;20118;-84
2023/04/08 12:49:11;;;;;;;14.48;5.78;;;9.00;99.90;;;;;;5108207;27;20054;-80
2023/04/08 12:51:37;;;;;;;15.82;6.07;;;8.90;99.90;;;;;;5097838;27;20050;-80